Time;durP1;ratioP1;P1;durP2;ratioP2;P2;SDS_P1;SDS_P2;PMS_P1;PMS_P2;Temp;Humidity;BMP_temperature;BMP_pressure;BME280_temperature;BME280_humidity;BME280_pressure;Samples;Min_cycle;Max_cycle;Signal;HPM_P1;HPM_P2
2021/04/03 00:00:07;;;;;;;16.30;2.38;;;;;;;;;;5092344;28;20130;-59
2021/04/03 00:02:34;;;;;;;13.95;2.17;;;;;;;;;;5091146;28;20028;-59
2021/04/03 00:05:02;;;;;;;13.68;2.20;;;;;;;;;;5091569;28;20105;-59
2021/04/03 00:07:28;;;;;;;13.27;2.92;;;;;;;;;;5092138;28;20026;-59
2021/04/03 00:09:56;;;;;;;17.17;2.95;;;;;;;;;;5091928;28;20028;-60
2021/04/03 00:12:23;;;;;;;11.73;2.70;;;;;;;;;;5093706;28;20100;-60
2021/04/03 00:14:50;;;;;;;15.50;2.50;;;;;;;;;;5095786;28;20027;-60
2021/04/03 00:17:17;;;;;;;10.07;2.42;;;;;;;;;;5095599;28;20396;-60
2021/04/03 00:19:44;;;;;;;15.57;2.42;;;;;;;;;;5095544;28;20103;-59
2021/04/03 00:22:11;;;;;;;13.70;2.40;;;;;;;;;;5095433;28;20024;-59
2021/04/03 00:24:38;;;;;;;12.48;1.95;;;;;;;;;;5095322;28;20507;-60
2021/04/03 00:27:05;;;;;;;17.90;2.38;;;;;;;;;;5095600;28;20032;-59
2021/04/03 00:29:33;;;;;;;9.15;2.15;;;;;;;;;;5095483;28;20024;-59
2021/04/03 00:32:00;;;;;;;11.05;2.08;;;;;;;;;;5095161;28;20032;-59
2021/04/03 00:34:27;;;;;;;12.40;2.63;;;;;;;;;;5095234;28;20361;-59
2021/04/03 00:36:54;;;;;;;9.55;1.92;;;;;;;;;;5095222;28;20024;-59
2021/04/03 00:39:21;;;;;;;18.13;2.85;;;;;;;;;;5095072;28;20111;-59
2021/04/03 00:41:48;;;;;;;10.50;2.03;;;;;;;;;;5094997;28;20054;-59
2021/04/03 00:44:15;;;;;;;9.15;2.08;;;;;;;;;;5095067;28;20020;-60
2021/04/03 00:46:42;;;;;;;7.82;2.15;;;;;;;;;;5094937;28;20032;-59
2021/04/03 00:49:09;;;;;;;13.75;2.13;;;;;;;;;;5094888;28;20024;-60
2021/04/03 00:51:36;;;;;;;15.73;2.20;;;;;;;;;;5094819;28;20102;-59
2021/04/03 00:54:03;;;;;;;10.98;1.90;;;;;;;;;;5094820;28;20035;-59
2021/04/03 00:56:30;;;;;;;10.45;2.35;;;;;;;;;;5094756;28;20364;-59
2021/04/03 00:58:58;;;;;;;10.18;2.10;;;;;;;;;;5094917;28;20069;-59
2021/04/03 01:01:25;;;;;;;9.25;2.33;;;;;;;;;;5094796;28;20056;-59
2021/04/03 01:03:52;;;;;;;9.23;2.22;;;;;;;;;;5094464;28;20024;-59
2021/04/03 01:06:19;;;;;;;10.75;2.13;;;;;;;;;;5094656;28;20098;-59
2021/04/03 01:08:49;;;;;;;10.20;2.15;;;;;;;;;;5094578;28;20069;-59
2021/04/03 01:11:16;;;;;;;10.27;2.28;;;;;;;;;;5094350;28;20024;-60
2021/04/03 01:13:50;;;;;;;15.85;2.40;;;;;;;;;;5094569;28;20020;-59
2021/04/03 01:16:38;;;;;;;13.98;2.20;;;;;;;;;;5094588;28;20024;-59
2021/04/03 01:19:14;;;;;;;8.57;2.13;;;;;;;;;;5094200;28;20032;-59
2021/04/03 01:21:59;;;;;;;11.20;2.10;;;;;;;;;;5094366;28;20051;-59
2021/04/03 01:24:37;;;;;;;6.97;1.83;;;;;;;;;;5094659;28;20032;-59
2021/04/03 01:27:26;;;;;;;11.98;2.08;;;;;;;;;;5094270;28;20074;-59
2021/04/03 01:30:05;;;;;;;11.55;2.00;;;;;;;;;;5094379;28;20020;-60
2021/04/03 01:32:44;;;;;;;9.30;1.73;;;;;;;;;;5094024;28;20023;-59
2021/04/03 01:35:15;;;;;;;8.85;1.88;;;;;;;;;;5094122;28;20046;-60
2021/04/03 01:38:08;;;;;;;14.98;2.50;;;;;;;;;;5093914;28;20008;-59
2021/04/03 01:40:35;;;;;;;8.55;1.95;;;;;;;;;;5094118;28;20556;-59
2021/04/03 01:43:09;;;;;;;6.80;1.80;;;;;;;;;;5093969;28;20020;-59
2021/04/03 01:45:37;;;;;;;10.15;2.03;;;;;;;;;;5094301;28;20032;-60
2021/04/03 01:48:04;;;;;;;10.23;2.13;;;;;;;;;;5093830;28;20020;-59
2021/04/03 01:50:32;;;;;;;9.18;1.73;;;;;;;;;;5093590;28;20529;-60
2021/04/03 01:52:59;;;;;;;8.23;1.80;;;;;;;;;;5093895;28;20031;-59
2021/04/03 01:55:26;;;;;;;5.75;1.58;;;;;;;;;;5093826;28;20030;-59
2021/04/03 01:57:54;;;;;;;8.93;1.85;;;;;;;;;;5092299;28;20018;-59
2021/04/03 02:00:25;;;;;;;9.50;1.88;;;;;;;;;;5093722;28;20128;-59
2021/04/03 02:02:53;;;;;;;10.00;2.22;;;;;;;;;;5093577;28;20043;-59
2021/04/03 02:05:21;;;;;;;11.80;2.13;;;;;;;;;;5093176;28;20048;-59
2021/04/03 02:07:48;;;;;;;8.00;1.80;;;;;;;;;;5093458;28;20020;-59
2021/04/03 02:10:17;;;;;;;7.88;1.50;;;;;;;;;;5093460;28;20070;-59
2021/04/03 02:12:45;;;;;;;6.13;1.58;;;;;;;;;;5093304;28;20024;-59
2021/04/03 02:15:13;;;;;;;7.55;2.13;;;;;;;;;;5093328;28;20028;-59
2021/04/03 02:17:42;;;;;;;6.88;1.85;;;;;;;;;;5093362;28;20024;-59
2021/04/03 02:20:10;;;;;;;9.20;2.05;;;;;;;;;;5093221;28;20031;-59
2021/04/03 02:22:38;;;;;;;11.38;2.50;;;;;;;;;;5093117;28;20016;-59
2021/04/03 02:25:06;;;;;;;6.82;1.88;;;;;;;;;;5093240;28;20050;-59
2021/04/03 02:27:33;;;;;;;10.13;2.58;;;;;;;;;;5093099;28;20024;-59
2021/04/03 02:30:12;;;;;;;6.97;2.13;;;;;;;;;;5093060;28;20039;-60
2021/04/03 02:32:57;;;;;;;6.95;2.20;;;;;;;;;;5092940;28;20028;-59
2021/04/03 02:35:26;;;;;;;7.65;2.10;;;;;;;;;;5092594;28;20016;-59
2021/04/03 02:37:54;;;;;;;7.18;2.30;;;;;;;;;;5093046;28;20526;-59
2021/04/03 02:40:24;;;;;;;8.13;2.03;;;;;;;;;;5091567;28;20467;-59
2021/04/03 02:42:58;;;;;;;6.00;2.13;;;;;;;;;;5092754;28;20028;-59
2021/04/03 02:45:26;;;;;;;6.35;1.90;;;;;;;;;;5092726;28;20085;-59
2021/04/03 02:48:02;;;;;;;5.75;1.70;;;;;;;;;;5092883;28;20111;-59
2021/04/03 02:50:35;;;;;;;8.00;2.13;;;;;;;;;;5092697;28;20020;-59
2021/04/03 02:53:03;;;;;;;7.32;2.05;;;;;;;;;;5092811;28;20024;-60
2021/04/03 02:55:32;;;;;;;6.32;1.73;;;;;;;;;;5092903;28;20024;-59
2021/04/03 02:58:00;;;;;;;4.88;1.70;;;;;;;;;;5092796;28;20020;-59
2021/04/03 03:00:28;;;;;;;6.80;2.15;;;;;;;;;;5092618;28;20103;-59
2021/04/03 03:02:55;;;;;;;6.85;1.95;;;;;;;;;;5092549;28;20416;-59
2021/04/03 03:05:23;;;;;;;5.97;1.80;;;;;;;;;;5092469;28;20044;-59
2021/04/03 03:07:51;;;;;;;8.30;2.05;;;;;;;;;;5092546;28;20024;-60
2021/04/03 03:10:18;;;;;;;7.93;1.90;;;;;;;;;;5092244;28;20428;-60
2021/04/03 03:12:46;;;;;;;10.93;2.03;;;;;;;;;;5092719;28;20533;-59
2021/04/03 03:15:17;;;;;;;6.03;1.77;;;;;;;;;;5092533;28;20036;-59
2021/04/03 03:17:45;;;;;;;6.57;1.92;;;;;;;;;;5092392;28;20380;-59
2021/04/03 03:20:16;;;;;;;5.03;1.98;;;;;;;;;;5092605;28;20032;-59
2021/04/03 03:22:43;;;;;;;6.25;2.17;;;;;;;;;;5092491;28;20028;-59
2021/04/03 03:25:10;;;;;;;7.10;1.83;;;;;;;;;;5092292;28;20067;-60
2021/04/03 03:27:40;;;;;;;7.88;1.85;;;;;;;;;;5092333;28;20020;-59
2021/04/03 03:30:08;;;;;;;5.80;2.15;;;;;;;;;;5092556;28;20047;-59
2021/04/03 03:32:35;;;;;;;5.68;2.10;;;;;;;;;;5092303;28;20020;-59
2021/04/03 03:35:05;;;;;;;5.63;1.52;;;;;;;;;;5092291;28;20352;-59
2021/04/03 03:37:33;;;;;;;5.32;1.60;;;;;;;;;;5092317;28;20099;-59
2021/04/03 03:40:00;;;;;;;6.82;1.90;;;;;;;;;;5092163;28;20028;-60
2021/04/03 03:42:27;;;;;;;9.43;1.92;;;;;;;;;;5092168;28;20024;-60
2021/04/03 03:44:55;;;;;;;5.18;1.60;;;;;;;;;;5092324;28;20471;-59
2021/04/03 03:47:22;;;;;;;5.88;1.50;;;;;;;;;;5094003;28;20102;-59
2021/04/03 03:49:49;;;;;;;7.03;1.73;;;;;;;;;;5096065;28;20083;-59
2021/04/03 03:52:16;;;;;;;9.73;1.60;;;;;;;;;;5094771;28;20111;-59
2021/04/03 03:54:43;;;;;;;6.40;1.60;;;;;;;;;;5096240;28;20467;-59
2021/04/03 03:57:10;;;;;;;7.63;1.95;;;;;;;;;;5095927;28;20028;-59
2021/04/03 03:59:37;;;;;;;8.52;1.77;;;;;;;;;;5096076;28;20418;-60
2021/04/03 04:02:04;;;;;;;6.82;1.80;;;;;;;;;;5095893;28;20024;-59
2021/04/03 04:04:31;;;;;;;6.10;1.65;;;;;;;;;;5095553;28;20074;-59
2021/04/03 04:06:58;;;;;;;4.32;1.67;;;;;;;;;;5095689;28;20020;-59
2021/04/03 04:09:26;;;;;;;2.72;1.20;;;;;;;;;;5095880;28;20020;-59
2021/04/03 04:11:53;;;;;;;8.13;1.92;;;;;;;;;;5095669;28;20468;-59
2021/04/03 04:14:20;;;;;;;6.10;1.88;;;;;;;;;;5095597;28;20103;-59
2021/04/03 04:16:47;;;;;;;4.43;1.42;;;;;;;;;;5095735;28;20131;-59
2021/04/03 04:19:14;;;;;;;6.22;1.52;;;;;;;;;;5095592;28;20024;-59
2021/04/03 04:21:41;;;;;;;7.25;1.70;;;;;;;;;;5095568;28;20048;-59
2021/04/03 04:24:08;;;;;;;5.80;1.63;;;;;;;;;;5095537;28;20016;-59
2021/04/03 04:26:35;;;;;;;6.80;1.52;;;;;;;;;;5095443;28;20035;-59
2021/04/03 04:29:02;;;;;;;4.95;1.77;;;;;;;;;;5095455;28;20024;-59
2021/04/03 04:31:29;;;;;;;4.80;1.50;;;;;;;;;;5095466;28;20024;-59
2021/04/03 04:33:56;;;;;;;6.00;1.33;;;;;;;;;;5095279;28;20024;-59
2021/04/03 04:36:23;;;;;;;7.13;1.50;;;;;;;;;;5095080;28;20027;-59
2021/04/03 04:38:50;;;;;;;6.63;1.40;;;;;;;;;;5095284;28;20028;-59
2021/04/03 04:41:17;;;;;;;4.63;1.42;;;;;;;;;;5095172;28;20112;-59
2021/04/03 04:43:44;;;;;;;4.20;1.60;;;;;;;;;;5095031;28;20020;-59
2021/04/03 04:46:11;;;;;;;2.80;1.10;;;;;;;;;;5095138;28;20078;-59
2021/04/03 04:48:38;;;;;;;3.65;1.40;;;;;;;;;;5095005;28;20027;-59
2021/04/03 04:51:06;;;;;;;4.45;1.25;;;;;;;;;;5094843;28;20028;-59
2021/04/03 04:53:33;;;;;;;8.40;1.40;;;;;;;;;;5095074;28;20414;-59
2021/04/03 04:56:00;;;;;;;5.75;1.40;;;;;;;;;;5094815;28;20028;-59
2021/04/03 04:58:27;;;;;;;9.02;1.70;;;;;;;;;;5094419;28;20012;-59
2021/04/03 05:00:54;;;;;;;3.55;1.52;;;;;;;;;;5094918;28;20051;-59
2021/04/03 05:03:21;;;;;;;5.93;1.70;;;;;;;;;;5094588;28;20112;-59
2021/04/03 05:05:48;;;;;;;5.88;1.20;;;;;;;;;;5094250;28;20048;-59
2021/04/03 05:08:15;;;;;;;8.02;2.15;;;;;;;;;;5094834;28;20016;-59
2021/04/03 05:10:42;;;;;;;7.60;1.33;;;;;;;;;;5094408;28;20115;-59
2021/04/03 05:13:09;;;;;;;3.95;1.30;;;;;;;;;;5094554;28;20024;-59
2021/04/03 05:15:36;;;;;;;4.53;1.30;;;;;;;;;;5094607;28;20115;-60
2021/04/03 05:18:03;;;;;;;7.05;1.52;;;;;;;;;;5094894;28;20020;-59
2021/04/03 05:20:30;;;;;;;5.47;1.30;;;;;;;;;;5094187;28;20031;-59
2021/04/03 05:22:57;;;;;;;7.38;1.23;;;;;;;;;;5094499;28;20096;-59
2021/04/03 05:25:24;;;;;;;5.22;1.25;;;;;;;;;;5094227;28;20028;-59
2021/04/03 05:27:51;;;;;;;6.65;1.50;;;;;;;;;;5094187;28;20099;-59
2021/04/03 05:30:18;;;;;;;5.35;1.33;;;;;;;;;;5094345;28;20052;-59
2021/04/03 05:32:45;;;;;;;5.32;1.20;;;;;;;;;;5094181;28;20027;-59
2021/04/03 05:35:13;;;;;;;3.22;1.20;;;;;;;;;;5093984;28;20024;-59
2021/04/03 05:37:40;;;;;;;2.40;1.10;;;;;;;;;;5094199;28;20048;-59
2021/04/03 05:40:07;;;;;;;4.40;1.33;;;;;;;;;;5094199;28;20028;-59
2021/04/03 05:42:35;;;;;;;5.43;1.13;;;;;;;;;;5093911;28;20050;-59
2021/04/03 05:45:04;;;;;;;6.47;1.33;;;;;;;;;;5094091;28;20086;-59
2021/04/03 05:47:35;;;;;;;6.07;1.40;;;;;;;;;;5093932;28;20024;-59
2021/04/03 05:50:03;;;;;;;5.15;1.02;;;;;;;;;;5093658;28;20493;-59
2021/04/03 05:52:30;;;;;;;2.92;1.10;;;;;;;;;;5093755;28;20488;-59
2021/04/03 05:54:57;;;;;;;5.20;1.17;;;;;;;;;;5093864;28;20024;-60
2021/04/03 05:57:25;;;;;;;6.13;1.38;;;;;;;;;;5093645;28;20035;-59
2021/04/03 05:59:52;;;;;;;5.60;1.42;;;;;;;;;;5093710;28;20028;-59
2021/04/03 06:02:19;;;;;;;4.50;1.40;;;;;;;;;;5093510;28;20028;-59
2021/04/03 06:04:46;;;;;;;3.80;1.08;;;;;;;;;;5093168;28;20069;-59
2021/04/03 06:07:13;;;;;;;2.88;1.20;;;;;;;;;;5093575;28;20054;-59
2021/04/03 06:09:40;;;;;;;4.78;1.38;;;;;;;;;;5092798;28;20016;-59
2021/04/03 06:12:08;;;;;;;4.45;1.10;;;;;;;;;;5093348;28;20028;-59
2021/04/03 06:14:38;;;;;;;4.03;1.20;;;;;;;;;;5093347;28;20024;-59
2021/04/03 06:17:05;;;;;;;3.95;1.20;;;;;;;;;;5093426;28;20479;-60
2021/04/03 06:19:35;;;;;;;3.55;1.23;;;;;;;;;;5093175;28;20020;-59
2021/04/03 06:22:03;;;;;;;4.88;1.42;;;;;;;;;;5093123;28;20028;-59
2021/04/03 06:24:39;;;;;;;8.07;1.20;;;;;;;;;;5093180;28;20090;-59
2021/04/03 06:27:07;;;;;;;3.85;1.23;;;;;;;;;;5093382;28;20172;-60
2021/04/03 06:29:37;;;;;;;6.65;1.13;;;;;;;;;;5093030;28;20102;-59
2021/04/03 06:32:05;;;;;;;5.07;1.23;;;;;;;;;;5092950;28;20046;-59
2021/04/03 06:34:32;;;;;;;5.70;1.23;;;;;;;;;;5093170;28;20062;-59
2021/04/03 06:37:00;;;;;;;6.15;1.10;;;;;;;;;;5093119;28;20031;-60
2021/04/03 06:39:27;;;;;;;5.28;1.10;;;;;;;;;;5092925;28;20081;-59
2021/04/03 06:41:54;;;;;;;6.35;1.38;;;;;;;;;;5092850;28;20028;-59
2021/04/03 06:44:22;;;;;;;4.60;1.25;;;;;;;;;;5092904;28;20035;-59
2021/04/03 06:46:50;;;;;;;5.85;0.90;;;;;;;;;;5092887;28;20024;-59
2021/04/03 06:49:17;;;;;;;6.97;1.30;;;;;;;;;;5092735;28;20021;-59
2021/04/03 06:51:45;;;;;;;6.03;1.00;;;;;;;;;;5092796;28;20035;-59
2021/04/03 06:54:13;;;;;;;5.10;1.25;;;;;;;;;;5092771;28;20112;-59
2021/04/03 06:56:40;;;;;;;4.78;1.27;;;;;;;;;;5092659;28;20087;-61
2021/04/03 06:59:11;;;;;;;2.50;1.05;;;;;;;;;;5092783;28;20024;-59
2021/04/03 07:01:55;;;;;;;2.72;0.90;;;;;;;;;;5092480;28;20016;-59
2021/04/03 07:04:30;;;;;;;5.80;1.17;;;;;;;;;;5092372;28;20521;-59
2021/04/03 07:06:57;;;;;;;4.68;1.02;;;;;;;;;;5092465;28;20028;-59
2021/04/03 07:09:25;;;;;;;2.97;1.02;;;;;;;;;;5092600;28;20024;-58
2021/04/03 07:11:55;;;;;;;9.27;1.05;;;;;;;;;;5092423;28;20059;-60
2021/04/03 07:14:23;;;;;;;5.05;1.08;;;;;;;;;;5092849;28;20028;-59
2021/04/03 07:16:51;;;;;;;5.18;1.23;;;;;;;;;;5092486;28;20050;-59
2021/04/03 07:19:21;;;;;;;6.05;1.33;;;;;;;;;;5092972;28;20016;-60
2021/04/03 07:21:48;;;;;;;6.40;0.95;;;;;;;;;;5095181;28;20356;-59
2021/04/03 07:24:17;;;;;;;6.57;1.13;;;;;;;;;;5096509;28;20028;-59
2021/04/03 07:26:45;;;;;;;3.22;1.30;;;;;;;;;;5096685;28;20039;-60
2021/04/03 07:29:38;;;;;;;8.10;1.10;;;;;;;;;;5096498;28;20024;-59
2021/04/03 07:32:06;;;;;;;6.35;1.10;;;;;;;;;;5087837;28;20069;-59
2021/04/03 07:34:43;;;;;;;5.60;1.20;;;;;;;;;;5096488;28;20095;-60
2021/04/03 07:37:10;;;;;;;4.82;0.90;;;;;;;;;;5096361;28;20028;-59
2021/04/03 07:39:39;;;;;;;3.70;0.98;;;;;;;;;;5096524;28;20058;-60
2021/04/03 07:42:06;;;;;;;3.50;1.00;;;;;;;;;;5096404;28;20023;-60
2021/04/03 07:44:37;;;;;;;4.88;1.17;;;;;;;;;;5096049;28;20479;-60
2021/04/03 07:47:20;;;;;;;3.53;0.95;;;;;;;;;;5096227;28;20032;-59
2021/04/03 07:49:48;;;;;;;3.75;1.05;;;;;;;;;;5096016;28;20020;-59
2021/04/03 07:52:15;;;;;;;4.65;1.10;;;;;;;;;;5096280;28;20031;-59
2021/04/03 07:54:42;;;;;;;5.75;1.02;;;;;;;;;;5096091;28;20039;-59
2021/04/03 07:57:12;;;;;;;3.47;1.13;;;;;;;;;;5096109;28;20020;-59
2021/04/03 07:59:48;;;;;;;4.68;1.20;;;;;;;;;;5096352;28;20424;-60
2021/04/03 08:02:19;;;;;;;3.15;1.13;;;;;;;;;;5095850;28;20020;-60
2021/04/03 08:04:47;;;;;;;5.07;1.30;;;;;;;;;;5095582;28;20622;-59
2021/04/03 08:07:15;;;;;;;4.25;1.20;;;;;;;;;;5095874;28;20111;-59
2021/04/03 08:09:42;;;;;;;5.65;1.35;;;;;;;;;;5095908;28;20019;-60
2021/04/03 08:12:09;;;;;;;3.17;1.08;;;;;;;;;;5095646;28;20035;-60
2021/04/03 08:14:37;;;;;;;4.55;1.08;;;;;;;;;;5095593;28;20020;-59
2021/04/03 08:17:05;;;;;;;4.90;0.73;;;;;;;;;;5095912;28;20429;-60
2021/04/03 08:19:36;;;;;;;4.90;1.08;;;;;;;;;;5095532;28;20028;-60
2021/04/03 08:22:08;;;;;;;3.80;0.90;;;;;;;;;;5095484;28;20056;-60
2021/04/03 08:24:35;;;;;;;6.32;1.20;;;;;;;;;;5095463;28;20066;-59
2021/04/03 08:27:02;;;;;;;4.72;0.93;;;;;;;;;;5095519;28;20031;-60
2021/04/03 08:29:39;;;;;;;3.88;0.93;;;;;;;;;;5095307;28;20506;-59
2021/04/03 08:32:06;;;;;;;2.55;1.00;;;;;;;;;;5094750;28;20024;-60
2021/04/03 08:34:33;;;;;;;3.33;0.80;;;;;;;;;;5095326;28;20016;-59
2021/04/03 08:37:00;;;;;;;5.28;0.88;;;;;;;;;;5095329;28;20028;-60
2021/04/03 08:39:28;;;;;;;6.07;1.30;;;;;;;;;;5095146;28;20459;-59
2021/04/03 08:41:57;;;;;;;6.03;1.02;;;;;;;;;;5095231;28;20112;-59
2021/04/03 08:44:31;;;;;;;4.47;0.90;;;;;;;;;;5095171;28;20012;-58
2021/04/03 08:47:02;;;;;;;4.25;1.13;;;;;;;;;;5095039;28;20024;-60
2021/04/03 08:49:31;;;;;;;5.25;1.63;;;;;;;;;;5095017;28;20016;-59
2021/04/03 08:51:58;;;;;;;4.18;0.80;;;;;;;;;;5095076;28;20028;-59
2021/04/03 08:54:25;;;;;;;5.53;0.88;;;;;;;;;;5094945;28;20057;-59
2021/04/03 08:56:52;;;;;;;8.38;1.50;;;;;;;;;;5094699;28;20028;-59
2021/04/03 08:59:22;;;;;;;5.70;1.00;;;;;;;;;;5094995;28;20024;-59
2021/04/03 09:01:52;;;;;;;5.22;1.08;;;;;;;;;;5094750;28;20031;-59
2021/04/03 09:04:20;;;;;;;6.18;0.80;;;;;;;;;;5094498;28;20496;-60
2021/04/03 09:06:54;;;;;;;6.30;1.20;;;;;;;;;;5094643;28;20024;-59
2021/04/03 09:09:21;;;;;;;3.83;0.73;;;;;;;;;;5094717;28;20172;-60
2021/04/03 09:11:57;;;;;;;4.82;0.88;;;;;;;;;;5094584;28;20028;-59
2021/04/03 09:14:34;;;;;;;6.20;1.10;;;;;;;;;;5094579;28;20035;-59
2021/04/03 09:17:02;;;;;;;5.88;0.90;;;;;;;;;;5094524;28;20012;-58
2021/04/03 09:19:30;;;;;;;6.38;0.98;;;;;;;;;;5094551;28;20024;-59
2021/04/03 09:21:58;;;;;;;2.88;1.30;;;;;;;;;;5094247;28;20085;-59
2021/04/03 09:24:44;;;;;;;3.60;0.90;;;;;;;;;;5094263;28;20024;-59
2021/04/03 09:27:21;;;;;;;6.90;1.10;;;;;;;;;;5094298;28;20074;-59
2021/04/03 09:29:55;;;;;;;5.43;0.80;;;;;;;;;;5094217;28;20016;-59
2021/04/03 09:32:23;;;;;;;6.28;1.00;;;;;;;;;;5094392;28;20012;-59
2021/04/03 09:34:50;;;;;;;4.03;0.95;;;;;;;;;;5094371;28;20094;-59
2021/04/03 09:37:20;;;;;;;8.93;0.90;;;;;;;;;;5094119;28;20027;-59
2021/04/03 09:39:49;;;;;;;3.83;0.80;;;;;;;;;;5093981;28;20035;-59
2021/04/03 09:42:18;;;;;;;4.35;0.63;;;;;;;;;;5094445;28;20023;-59
2021/04/03 09:44:45;;;;;;;4.05;0.77;;;;;;;;;;5092765;28;20024;-59
2021/04/03 09:47:12;;;;;;;2.80;0.90;;;;;;;;;;5093793;28;20111;-59
2021/04/03 09:49:40;;;;;;;3.08;0.95;;;;;;;;;;5093899;28;20016;-59
2021/04/03 09:52:08;;;;;;;3.03;0.90;;;;;;;;;;5093851;28;20047;-59
2021/04/03 09:54:35;;;;;;;4.18;1.08;;;;;;;;;;5093862;28;20040;-59
2021/04/03 09:57:03;;;;;;;3.03;0.75;;;;;;;;;;5093848;28;20150;-60
2021/04/03 09:59:30;;;;;;;7.95;1.02;;;;;;;;;;5093689;28;20020;-60
2021/04/03 10:01:58;;;;;;;4.80;1.00;;;;;;;;;;5093325;28;20073;-59
2021/04/03 10:04:25;;;;;;;4.75;1.00;;;;;;;;;;5093443;28;20048;-59
2021/04/03 10:06:52;;;;;;;6.07;1.05;;;;;;;;;;5093493;28;20410;-60
2021/04/03 10:09:20;;;;;;;4.80;1.10;;;;;;;;;;5093365;28;20020;-59
2021/04/03 10:11:47;;;;;;;6.32;1.10;;;;;;;;;;5093539;28;20380;-60
2021/04/03 10:14:14;;;;;;;3.63;1.05;;;;;;;;;;5093564;28;20054;-60
2021/04/03 10:16:42;;;;;;;4.70;0.95;;;;;;;;;;5093192;28;20066;-60
2021/04/03 10:19:09;;;;;;;7.28;1.10;;;;;;;;;;5093321;28;20099;-58
2021/04/03 10:21:37;;;;;;;6.88;1.00;;;;;;;;;;5093306;28;20016;-59
2021/04/03 10:24:04;;;;;;;4.28;0.82;;;;;;;;;;5093260;28;20059;-62
2021/04/03 10:26:31;;;;;;;4.78;0.80;;;;;;;;;;5093168;28;20032;-60
2021/04/03 10:28:58;;;;;;;2.90;0.70;;;;;;;;;;5093400;28;20052;-61
2021/04/03 10:31:25;;;;;;;3.47;0.95;;;;;;;;;;5092914;28;20031;-61
2021/04/03 10:33:52;;;;;;;5.28;1.10;;;;;;;;;;5093103;28;20024;-61
2021/04/03 10:36:19;;;;;;;3.00;0.85;;;;;;;;;;5093230;28;20108;-59
2021/04/03 10:38:47;;;;;;;6.03;0.90;;;;;;;;;;5092919;28;20031;-62
2021/04/03 10:41:15;;;;;;;4.55;1.00;;;;;;;;;;5091642;28;20418;-62
2021/04/03 10:43:42;;;;;;;4.65;1.00;;;;;;;;;;5093035;28;20095;-59
2021/04/03 10:46:09;;;;;;;5.50;1.00;;;;;;;;;;5092867;28;20039;-61
2021/04/03 10:48:36;;;;;;;3.78;0.95;;;;;;;;;;5092854;28;20103;-61
2021/04/03 10:51:04;;;;;;;3.72;1.17;;;;;;;;;;5092844;28;20406;-62
2021/04/03 10:53:31;;;;;;;11.95;1.20;;;;;;;;;;5092726;28;20020;-62
2021/04/03 10:55:58;;;;;;;9.38;1.83;;;;;;;;;;5092440;28;20028;-61
2021/04/03 10:58:25;;;;;;;5.20;0.90;;;;;;;;;;5092815;28;20055;-60
2021/04/03 11:00:52;;;;;;;4.60;0.90;;;;;;;;;;5092610;28;20032;-62
2021/04/03 11:03:19;;;;;;;6.57;1.05;;;;;;;;;;5092413;28;20070;-60
2021/04/03 11:05:46;;;;;;;4.97;0.82;;;;;;;;;;5092599;28;20078;-57
2021/04/03 11:08:16;;;;;;;7.80;1.02;;;;;;;;;;5092595;28;20044;-63
2021/04/03 11:10:43;;;;;;;6.60;0.88;;;;;;;;;;5092579;28;20024;-63
2021/04/03 11:13:10;;;;;;;5.75;1.00;;;;;;;;;;5092699;28;20017;-62
2021/04/03 11:15:37;;;;;;;4.40;0.77;;;;;;;;;;5092497;28;20074;-63
2021/04/03 11:18:04;;;;;;;3.03;0.70;;;;;;;;;;5092553;28;20090;-63
2021/04/03 11:20:31;;;;;;;2.95;0.80;;;;;;;;;;5092583;28;20039;-62
2021/04/03 11:22:59;;;;;;;3.88;0.60;;;;;;;;;;5092473;28;20027;-63
2021/04/03 11:25:26;;;;;;;4.70;0.60;;;;;;;;;;5092396;28;20036;-63
2021/04/03 11:27:53;;;;;;;8.85;0.88;;;;;;;;;;5092417;28;20027;-62
2021/04/03 11:30:20;;;;;;;5.63;1.05;;;;;;;;;;5092539;28;20543;-63
2021/04/03 11:32:49;;;;;;;5.78;0.95;;;;;;;;;;5091025;28;20028;-63
2021/04/03 11:35:17;;;;;;;3.08;0.93;;;;;;;;;;5092365;28;20454;-62
2021/04/03 11:37:46;;;;;;;7.35;0.95;;;;;;;;;;5092476;28;20020;-62
2021/04/03 11:40:14;;;;;;;3.25;0.70;;;;;;;;;;5092259;28;20107;-63
2021/04/03 11:42:41;;;;;;;3.97;1.05;;;;;;;;;;5092177;28;20028;-62
2021/04/03 11:45:09;;;;;;;5.30;0.70;;;;;;;;;;5092332;28;20360;-62
2021/04/03 11:47:37;;;;;;;5.20;0.75;;;;;;;;;;5092125;28;20027;-62
2021/04/03 11:50:05;;;;;;;3.55;0.77;;;;;;;;;;5092121;28;20009;-63
2021/04/03 11:52:33;;;;;;;5.13;0.80;;;;;;;;;;5092388;28;20039;-63
2021/04/03 11:55:00;;;;;;;8.18;0.85;;;;;;;;;;5092112;28;20464;-63
2021/04/03 11:57:29;;;;;;;3.67;0.75;;;;;;;;;;5091933;28;20020;-63
2021/04/03 11:59:56;;;;;;;3.55;0.80;;;;;;;;;;5092313;28;20028;-62
2021/04/03 12:02:23;;;;;;;5.70;0.77;;;;;;;;;;5091989;28;20046;-61
2021/04/03 12:04:50;;;;;;;3.22;0.77;;;;;;;;;;5091856;28;20048;-59
2021/04/03 12:07:17;;;;;;;3.90;0.90;;;;;;;;;;5092267;28;20028;-59
2021/04/03 12:09:44;;;;;;;9.82;1.00;;;;;;;;;;5095878;28;20020;-59
2021/04/03 12:12:11;;;;;;;6.63;1.10;;;;;;;;;;5095670;28;20379;-60
2021/04/03 12:14:38;;;;;;;6.13;0.90;;;;;;;;;;5095841;28;20065;-58
2021/04/03 12:17:05;;;;;;;3.10;1.05;;;;;;;;;;5095800;28;20028;-59
2021/04/03 12:19:32;;;;;;;5.20;0.93;;;;;;;;;;5095580;28;20070;-61
2021/04/03 12:21:59;;;;;;;7.35;1.00;;;;;;;;;;5095882;28;20031;-60
2021/04/03 12:24:27;;;;;;;4.32;0.80;;;;;;;;;;5095659;28;20016;-57
2021/04/03 12:26:54;;;;;;;2.28;0.70;;;;;;;;;;5095749;28;20088;-59
2021/04/03 12:29:21;;;;;;;4.32;1.00;;;;;;;;;;5095440;28;20383;-62
2021/04/03 12:31:48;;;;;;;6.00;1.15;;;;;;;;;;5095521;28;20031;-62
2021/04/03 12:34:15;;;;;;;4.88;0.70;;;;;;;;;;5095279;28;20020;-59
2021/04/03 12:36:42;;;;;;;5.25;1.00;;;;;;;;;;5095362;28;20103;-63
2021/04/03 12:39:09;;;;;;;3.47;1.00;;;;;;;;;;5095336;28;20485;-61
2021/04/03 12:41:36;;;;;;;4.32;0.90;;;;;;;;;;5095090;28;20039;-62
2021/04/03 12:44:03;;;;;;;1.70;0.60;;;;;;;;;;5095149;28;20068;-61
2021/04/03 12:46:30;;;;;;;4.47;1.02;;;;;;;;;;5095254;28;20062;-61
2021/04/03 12:48:57;;;;;;;6.50;0.90;;;;;;;;;;5095087;28;20024;-62
2021/04/03 12:51:24;;;;;;;4.28;0.85;;;;;;;;;;5094942;28;20016;-61
2021/04/03 12:53:51;;;;;;;7.57;1.42;;;;;;;;;;5095115;28;20047;-60
2021/04/03 12:56:18;;;;;;;7.25;0.98;;;;;;;;;;5094940;28;20023;-59
2021/04/03 12:58:45;;;;;;;3.88;1.08;;;;;;;;;;5094896;28;20035;-59
2021/04/03 13:01:13;;;;;;;6.13;0.88;;;;;;;;;;5094840;28;20410;-61
2021/04/03 13:03:41;;;;;;;5.20;1.10;;;;;;;;;;5094510;28;20024;-61
2021/04/03 13:06:08;;;;;;;2.85;0.80;;;;;;;;;;5094677;28;20036;-61
2021/04/03 13:08:35;;;;;;;5.78;0.65;;;;;;;;;;5094838;28;20024;-62
2021/04/03 13:11:02;;;;;;;4.90;0.88;;;;;;;;;;5094529;28;20078;-60
2021/04/03 13:13:29;;;;;;;3.25;0.85;;;;;;;;;;5094664;28;20024;-59
2021/04/03 13:15:56;;;;;;;3.00;0.95;;;;;;;;;;5094853;28;20024;-60
2021/04/03 13:18:23;;;;;;;5.57;1.10;;;;;;;;;;5094260;28;20028;-60
2021/04/03 13:20:52;;;;;;;3.13;1.17;;;;;;;;;;5094309;28;20107;-59
2021/04/03 13:23:19;;;;;;;4.05;1.42;;;;;;;;;;5094586;28;20020;-61
2021/04/03 13:25:46;;;;;;;2.28;0.57;;;;;;;;;;5094252;28;20068;-61
2021/04/03 13:28:14;;;;;;;6.30;0.82;;;;;;;;;;5094247;28;20475;-60
2021/04/03 13:30:42;;;;;;;3.75;0.70;;;;;;;;;;5094392;28;20032;-61
2021/04/03 13:33:09;;;;;;;7.18;0.90;;;;;;;;;;5094441;28;20402;-62
2021/04/03 13:35:36;;;;;;;4.38;1.08;;;;;;;;;;5094321;28;20020;-60
2021/04/03 13:38:03;;;;;;;3.97;0.90;;;;;;;;;;5094160;28;20028;-57
2021/04/03 13:40:30;;;;;;;6.18;1.48;;;;;;;;;;5094126;28;20507;-59
2021/04/03 13:42:57;;;;;;;2.30;1.02;;;;;;;;;;5094020;28;20852;-61
2021/04/03 13:45:24;;;;;;;4.22;1.05;;;;;;;;;;5094009;28;20082;-61
2021/04/03 13:47:51;;;;;;;3.78;1.05;;;;;;;;;;5094093;28;20016;-62
2021/04/03 13:50:18;;;;;;;2.70;0.95;;;;;;;;;;5093872;28;20050;-62
2021/04/03 13:52:45;;;;;;;3.40;0.80;;;;;;;;;;5093735;28;20099;-62
2021/04/03 13:55:13;;;;;;;4.07;0.90;;;;;;;;;;5093927;28;20035;-62
2021/04/03 13:57:40;;;;;;;4.20;1.00;;;;;;;;;;5093631;28;20012;-63
2021/04/03 14:00:07;;;;;;;3.25;0.80;;;;;;;;;;5093635;28;20533;-63
2021/04/03 14:02:34;;;;;;;7.18;1.00;;;;;;;;;;5094089;28;20032;-63
2021/04/03 14:05:01;;;;;;;4.78;1.10;;;;;;;;;;5093188;28;20040;-63
2021/04/03 14:07:28;;;;;;;4.63;0.95;;;;;;;;;;5093440;28;20472;-62
2021/04/03 14:09:55;;;;;;;4.15;1.10;;;;;;;;;;5093521;28;20020;-63
2021/04/03 14:12:22;;;;;;;2.22;1.13;;;;;;;;;;5093686;28;20035;-63
2021/04/03 14:14:49;;;;;;;5.68;0.95;;;;;;;;;;5093422;28;20020;-62
2021/04/03 14:17:16;;;;;;;1.95;0.80;;;;;;;;;;5093632;28;20044;-62
2021/04/03 14:19:43;;;;;;;2.45;0.70;;;;;;;;;;5093307;28;20024;-63
2021/04/03 14:22:10;;;;;;;3.33;0.85;;;;;;;;;;5093150;28;20012;-61
2021/04/03 14:24:38;;;;;;;2.30;0.90;;;;;;;;;;5093241;28;20081;-63
2021/04/03 14:27:06;;;;;;;1.80;0.70;;;;;;;;;;5093191;28;20720;-63
2021/04/03 14:29:33;;;;;;;4.95;1.17;;;;;;;;;;5093159;28;20085;-62
2021/04/03 14:32:00;;;;;;;3.95;1.08;;;;;;;;;;5092743;28;20498;-63
2021/04/03 14:34:27;;;;;;;5.75;1.20;;;;;;;;;;5093111;28;20024;-59
2021/04/03 14:36:54;;;;;;;4.32;0.70;;;;;;;;;;5093037;28;20024;-62
2021/04/03 14:39:21;;;;;;;2.47;0.75;;;;;;;;;;5093237;28;20514;-58
2021/04/03 14:41:48;;;;;;;3.00;0.90;;;;;;;;;;5092927;28;20031;-58
2021/04/03 14:44:15;;;;;;;2.42;0.77;;;;;;;;;;5092965;28;20012;-59
2021/04/03 14:46:42;;;;;;;3.08;0.85;;;;;;;;;;5093001;28;20028;-59